createdAt,value
2023-03-11T00:01:07.977Z,97440.06
2023-03-11T00:03:35.630Z,97439.13
2023-03-11T00:06:03.191Z,97431.41
2023-03-11T00:08:30.952Z,97415.53
2023-03-11T00:11:00.591Z,97415.84
2023-03-11T00:13:30.495Z,97421.50
2023-03-11T00:15:57.956Z,97427.06
2023-03-11T00:18:28.105Z,97431.59
2023-03-11T00:20:56.460Z,97424.59
2023-03-11T00:23:25.100Z,97419.06
2023-03-11T00:25:53.266Z,97428.31
2023-03-11T00:28:22.260Z,97417.31
2023-03-11T00:30:49.653Z,97428.00
2023-03-11T00:33:17.363Z,97421.97
2023-03-11T00:35:45.015Z,97427.88
2023-03-11T00:38:16.592Z,97426.59
2023-03-11T00:40:46.085Z,97430.00
2023-03-11T00:43:14.134Z,97428.28
2023-03-11T00:45:41.625Z,97438.41
2023-03-11T00:48:09.580Z,97436.06
2023-03-11T00:50:37.759Z,97436.19
2023-03-11T00:53:06.218Z,97442.44
2023-03-11T00:55:35.477Z,97449.34
2023-03-11T00:58:05.247Z,97455.78
2023-03-11T01:00:34.046Z,97465.00
2023-03-11T01:03:03.129Z,97451.88
2023-03-11T01:05:32.403Z,97444.69
2023-03-11T01:08:00.383Z,97450.75
2023-03-11T01:10:29.266Z,97457.25
2023-03-11T01:12:56.803Z,97454.16
2023-03-11T01:15:31.467Z,97438.66
2023-03-11T01:18:00.396Z,97447.59
2023-03-11T01:20:28.149Z,97441.91
2023-03-11T01:22:55.828Z,97443.84
2023-03-11T01:25:24.480Z,97443.91
2023-03-11T01:27:51.888Z,97435.91
2023-03-11T01:30:22.240Z,97437.97
2023-03-11T01:32:52.551Z,97434.41
2023-03-11T01:35:22.038Z,97438.34
2023-03-11T01:37:49.892Z,97448.34
2023-03-11T01:40:20.791Z,97440.44
2023-03-11T01:42:48.287Z,97440.47
2023-03-11T01:45:34.193Z,97433.69
2023-03-11T01:48:02.119Z,97433.37
2023-03-11T01:50:34.878Z,97430.31
2023-03-11T01:53:03.221Z,97436.50
2023-03-11T01:55:31.720Z,97437.34
2023-03-11T01:58:03.383Z,97445.59
2023-03-11T02:00:31.385Z,97436.84
2023-03-11T02:03:00.994Z,97441.59
2023-03-11T02:05:28.906Z,97440.03
2023-03-11T02:07:56.390Z,97438.16
2023-03-11T02:10:25.099Z,97447.06
2023-03-11T02:12:52.675Z,97449.50
2023-03-11T02:15:24.160Z,97441.84
2023-03-11T02:17:52.695Z,97445.34
2023-03-11T02:20:35.625Z,97439.09
2023-03-11T02:23:03.350Z,97441.59
2023-03-11T02:25:35.009Z,97435.88
2023-03-11T02:28:06.041Z,97424.66
2023-03-11T02:30:34.335Z,97443.13
2023-03-11T02:33:02.464Z,97432.03
2023-03-11T02:35:31.610Z,97432.87
2023-03-11T02:37:59.926Z,97437.56
2023-03-11T02:40:29.925Z,97438.88
2023-03-11T02:43:00.195Z,97443.06
2023-03-11T02:45:29.942Z,97440.31
2023-03-11T02:47:58.737Z,97450.28
2023-03-11T02:50:27.084Z,97442.56
2023-03-11T02:52:56.013Z,97443.13
2023-03-11T02:55:23.657Z,97449.56
2023-03-11T02:57:51.154Z,97458.47
2023-03-11T03:00:19.371Z,97464.19
2023-03-11T03:02:51.717Z,97461.81
2023-03-11T03:05:20.830Z,97460.75
2023-03-11T03:07:49.246Z,97463.03
2023-03-11T03:10:19.513Z,97469.56
2023-03-11T03:12:47.395Z,97468.34
2023-03-11T03:15:16.088Z,97480.47
2023-03-11T03:17:44.334Z,97492.50
2023-03-11T03:20:14.026Z,97481.28
2023-03-11T03:22:42.423Z,97488.78
2023-03-11T03:25:10.903Z,97482.47
2023-03-11T03:27:38.681Z,97480.16
2023-03-11T03:30:07.027Z,97491.84
2023-03-11T03:32:34.496Z,97469.00
2023-03-11T03:35:03.221Z,97494.03
2023-03-11T03:37:36.510Z,97488.00
2023-03-11T03:40:08.380Z,97477.81
2023-03-11T03:42:36.989Z,97475.50
2023-03-11T03:45:07.630Z,97476.34
2023-03-11T03:47:35.796Z,97481.50
2023-03-11T03:50:08.500Z,97483.34
2023-03-11T03:52:37.558Z,97490.88
2023-03-11T03:55:05.983Z,97483.53
2023-03-11T03:57:33.694Z,97482.19
2023-03-11T04:00:01.598Z,97495.19
2023-03-11T04:02:29.036Z,97494.88
2023-03-11T04:04:57.412Z,97488.53
2023-03-11T04:07:24.937Z,97501.34
2023-03-11T04:09:52.373Z,97494.78
2023-03-11T04:12:20.038Z,97496.81
2023-03-11T04:14:47.507Z,97501.50
2023-03-11T04:17:15.014Z,97510.09
2023-03-11T04:19:42.714Z,97518.78
2023-03-11T04:22:10.999Z,97511.47
2023-03-11T04:24:38.404Z,97531.09
2023-03-11T04:27:06.472Z,97520.09
2023-03-11T04:29:34.050Z,97525.97
2023-03-11T04:32:02.300Z,97519.28
2023-03-11T04:34:30.883Z,97506.94
2023-03-11T04:36:58.248Z,97513.25
2023-03-11T04:39:26.299Z,97519.38
2023-03-11T04:41:54.086Z,97524.37
2023-03-11T04:44:21.977Z,97500.09
2023-03-11T04:46:49.609Z,97500.06
2023-03-11T04:49:17.248Z,97509.28
2023-03-11T04:51:44.936Z,97489.97
2023-03-11T04:54:12.486Z,97493.47
2023-03-11T04:56:40.356Z,97508.53
2023-03-11T04:59:07.836Z,97515.94
2023-03-11T05:01:35.772Z,97508.00
2023-03-11T05:04:03.982Z,97503.25
2023-03-11T05:06:31.469Z,97506.75
2023-03-11T05:09:00.378Z,97495.88
2023-03-11T05:11:28.216Z,97501.72
2023-03-11T05:13:55.790Z,97484.63
2023-03-11T05:16:23.404Z,97524.97
2023-03-11T05:18:51.226Z,97528.62
2023-03-11T05:21:18.631Z,97509.84
2023-03-11T05:23:45.979Z,97534.78
2023-03-11T05:26:13.996Z,97531.53
2023-03-11T05:28:42.104Z,97550.34
2023-03-11T05:31:10.415Z,97541.50
2023-03-11T05:33:38.331Z,97555.28
2023-03-11T05:36:10.478Z,97552.78
2023-03-11T05:38:38.407Z,97563.22
2023-03-11T05:41:06.499Z,97569.81
2023-03-11T05:43:34.827Z,97576.69
2023-03-11T05:46:03.396Z,97585.13
2023-03-11T05:48:31.397Z,97598.63
2023-03-11T05:50:59.515Z,97598.66
2023-03-11T05:53:27.610Z,97587.81
2023-03-11T05:55:59.872Z,97597.69
2023-03-11T05:58:28.968Z,97580.06
2023-03-11T06:00:56.551Z,97580.69
2023-03-11T06:03:24.330Z,97574.78
2023-03-11T06:05:53.096Z,97598.44
2023-03-11T06:08:21.996Z,97592.56
2023-03-11T06:10:49.985Z,97607.28
2023-03-11T06:13:17.715Z,97588.88
2023-03-11T06:15:46.191Z,97607.06
2023-03-11T06:18:14.194Z,97623.09
2023-03-11T06:20:41.942Z,97610.84
2023-03-11T06:23:09.339Z,97642.31
2023-03-11T06:25:36.990Z,97637.69
2023-03-11T06:28:04.613Z,97640.38
2023-03-11T06:30:32.171Z,97647.06
2023-03-11T06:33:00.247Z,97669.72
2023-03-11T06:35:27.597Z,97658.34
2023-03-11T06:37:55.850Z,97681.25
2023-03-11T06:40:23.537Z,97695.09
2023-03-11T06:42:50.946Z,97700.66
2023-03-11T06:45:20.618Z,97701.28
2023-03-11T06:47:48.941Z,97726.81
2023-03-11T06:50:16.832Z,97706.41
2023-03-11T06:52:44.245Z,97712.91
2023-03-11T06:55:12.134Z,97719.69
2023-03-11T06:57:39.595Z,97723.72
2023-03-11T07:00:11.782Z,97709.06
2023-03-11T07:02:40.484Z,97723.25
2023-03-11T07:05:08.640Z,97709.75
2023-03-11T07:07:36.171Z,97725.31
2023-03-11T07:10:05.350Z,97714.09
2023-03-11T07:12:32.953Z,97734.06
2023-03-11T07:15:00.646Z,97712.34
2023-03-11T07:17:28.540Z,97734.12
2023-03-11T07:19:56.723Z,97730.00
2023-03-11T07:22:24.114Z,97726.09
2023-03-11T07:24:51.827Z,97747.88
2023-03-11T07:27:19.773Z,97729.13
2023-03-11T07:29:47.201Z,97728.59
2023-03-11T07:32:15.278Z,97702.75
2023-03-11T07:34:42.873Z,97725.19
2023-03-11T07:37:10.316Z,97730.78
2023-03-11T07:39:39.425Z,97711.75
2023-03-11T07:42:06.958Z,97726.88
2023-03-11T07:44:34.614Z,97717.16
2023-03-11T07:47:06.071Z,97723.16
2023-03-11T07:49:33.837Z,97713.00
2023-03-11T07:52:01.294Z,97710.19
2023-03-11T07:54:28.938Z,97724.28
2023-03-11T07:56:56.367Z,97734.69
2023-03-11T07:59:23.754Z,97716.09
2023-03-11T08:01:51.723Z,97712.28
2023-03-11T08:04:19.430Z,97724.22
2023-03-11T08:06:47.991Z,97689.63
2023-03-11T08:09:15.608Z,97688.22
2023-03-11T08:11:43.273Z,97706.09
2023-03-11T08:14:10.735Z,97697.50
2023-03-11T08:16:40.153Z,97728.41
2023-03-11T08:19:07.828Z,97747.69
2023-03-11T08:21:35.217Z,97792.53
2023-03-11T08:24:05.007Z,97749.72
2023-03-11T08:26:33.790Z,97751.34
2023-03-11T08:29:01.164Z,97721.28
2023-03-11T08:31:31.143Z,97707.09
2023-03-11T08:34:01.777Z,97696.12
2023-03-11T08:36:30.027Z,97673.34
2023-03-11T08:38:58.033Z,97668.22
2023-03-11T08:41:25.926Z,97648.81
2023-03-11T08:43:53.587Z,97653.66
2023-03-11T08:46:33.304Z,97660.91
2023-03-11T08:49:01.678Z,97691.37
2023-03-11T08:51:31.066Z,97704.00
2023-03-11T08:53:59.077Z,97690.75
2023-03-11T08:56:26.859Z,97719.56
2023-03-11T08:58:54.409Z,97719.19
2023-03-11T09:01:23.005Z,97732.66
2023-03-11T09:03:50.740Z,97725.88
2023-03-11T09:06:18.691Z,97737.59
2023-03-11T09:08:46.923Z,97754.22
2023-03-11T09:11:16.153Z,97757.69
2023-03-11T09:13:44.095Z,97767.94
2023-03-11T09:16:16.305Z,97792.81
2023-03-11T09:18:44.038Z,97786.81
2023-03-11T09:21:11.533Z,97801.66
2023-03-11T09:23:41.124Z,97800.25
2023-03-11T09:26:10.532Z,97819.91
2023-03-11T09:28:38.006Z,97811.88
2023-03-11T09:31:05.943Z,97830.38
2023-03-11T09:33:40.229Z,97827.56
2023-03-11T09:36:08.453Z,97819.69
2023-03-11T09:38:36.062Z,97832.56
2023-03-11T09:41:18.713Z,97796.38
2023-03-11T09:44:01.361Z,97834.94
2023-03-11T09:46:47.645Z,97840.03
2023-03-11T09:49:41.869Z,97847.50
2023-03-11T09:52:17.278Z,97849.16
2023-03-11T09:54:53.615Z,97850.53
2023-03-11T09:57:29.688Z,97847.31
2023-03-11T09:59:58.220Z,97821.00
2023-03-11T10:02:27.131Z,97856.56
2023-03-11T10:05:01.742Z,97853.94
2023-03-11T10:07:38.240Z,97871.31
2023-03-11T10:10:07.140Z,97844.16
2023-03-11T10:12:52.432Z,97849.00
2023-03-11T10:15:23.528Z,97859.22
2023-03-11T10:18:18.609Z,97868.63
2023-03-11T10:21:03.750Z,97862.91
2023-03-11T10:23:50.415Z,97868.06
2023-03-11T10:26:20.807Z,97918.81
2023-03-11T10:29:03.840Z,97907.56
2023-03-11T10:31:35.976Z,97913.34
2023-03-11T10:34:11.348Z,97936.72
2023-03-11T10:37:01.944Z,97956.78
2023-03-11T10:39:30.500Z,97950.44
2023-03-11T10:42:01.837Z,97939.91
2023-03-11T10:44:40.277Z,97948.94
2023-03-11T10:47:15.848Z,97935.91
2023-03-11T10:49:43.242Z,97937.03
2023-03-11T10:52:10.940Z,97934.69
2023-03-11T10:54:43.861Z,97935.25
2023-03-11T10:57:38.914Z,97936.59
2023-03-11T11:00:17.482Z,97942.72
2023-03-11T11:02:58.110Z,97921.38
2023-03-11T11:05:32.695Z,97940.41
2023-03-11T11:08:17.366Z,97932.25
2023-03-11T11:10:53.466Z,97955.00
2023-03-11T11:13:23.519Z,97934.25
2023-03-11T11:16:05.509Z,97962.72
2023-03-11T11:18:49.274Z,97951.25
2023-03-11T11:21:32.212Z,97945.63
2023-03-11T11:24:20.333Z,97964.78
2023-03-11T11:27:18.567Z,97968.56
2023-03-11T11:29:47.507Z,97986.06
2023-03-11T11:32:18.978Z,97957.66
2023-03-11T11:34:59.868Z,97967.13
2023-03-11T11:37:32.057Z,97967.66
2023-03-11T11:40:11.483Z,97981.53
2023-03-11T11:42:40.740Z,97979.09
2023-03-11T11:45:29.347Z,97986.59
2023-03-11T11:48:00.769Z,97987.50
2023-03-11T11:50:36.007Z,97981.63
2023-03-11T11:53:46.938Z,97991.34
2023-03-11T11:56:14.666Z,98010.56
2023-03-11T11:58:42.154Z,98010.03
2023-03-11T12:01:32.021Z,98000.62
2023-03-11T12:04:02.704Z,98011.13
2023-03-11T12:06:52.031Z,98009.31
2023-03-11T12:09:34.739Z,98005.47
2023-03-11T12:12:28.269Z,98010.88
2023-03-11T12:15:07.409Z,97995.31
2023-03-11T12:17:38.239Z,98008.91
2023-03-11T12:20:28.083Z,98004.00
2023-03-11T12:23:01.904Z,97991.25
2023-03-11T12:25:44.860Z,97993.47
2023-03-11T12:28:24.890Z,97987.19
2023-03-11T12:30:59.245Z,97993.19
2023-03-11T12:33:40.492Z,97992.97
2023-03-11T12:36:22.031Z,97978.53
2023-03-11T12:38:50.140Z,97990.50
2023-03-11T12:41:31.557Z,97967.31
2023-03-11T12:44:04.252Z,97985.62
2023-03-11T12:47:10.417Z,97980.78
2023-03-11T12:49:40.868Z,97975.19
2023-03-11T12:52:11.681Z,97963.94
2023-03-11T12:54:50.000Z,97983.44
2023-03-11T12:57:20.504Z,97984.16
2023-03-11T13:00:18.232Z,98009.31
2023-03-11T13:03:16.603Z,98001.53
2023-03-11T13:06:05.627Z,98020.09
2023-03-11T13:08:44.341Z,98025.66
2023-03-11T13:11:28.864Z,98039.00
2023-03-11T13:14:29.406Z,98035.56
2023-03-11T13:17:17.856Z,98050.41
2023-03-11T13:19:51.091Z,98064.00
2023-03-11T13:22:40.528Z,98066.13
2023-03-11T13:25:29.172Z,98067.81
2023-03-11T13:28:41.843Z,98058.31
2023-03-11T13:31:38.608Z,98092.91
2023-03-11T13:34:50.457Z,98077.25
2023-03-11T13:37:51.941Z,98089.75
2023-03-11T13:40:29.627Z,98089.38
2023-03-11T13:43:17.411Z,98112.31
2023-03-11T13:45:56.444Z,98100.09
2023-03-11T13:48:40.662Z,98119.37
2023-03-11T13:51:15.372Z,98131.69
2023-03-11T13:54:11.347Z,98139.09
2023-03-11T13:56:44.595Z,98147.41
2023-03-11T13:59:29.671Z,98139.25
2023-03-11T14:02:00.336Z,98160.44
2023-03-11T14:04:39.825Z,98166.41
2023-03-11T14:07:18.227Z,98189.38
2023-03-11T14:09:45.941Z,98170.28
2023-03-11T14:12:14.067Z,98175.91
2023-03-11T14:14:53.474Z,98183.75
2023-03-11T14:17:21.439Z,98178.56
2023-03-11T14:20:10.704Z,98183.06
2023-03-11T14:22:38.752Z,98212.91
2023-03-11T14:25:10.838Z,98213.34
2023-03-11T14:27:39.366Z,98214.34
2023-03-11T14:30:07.197Z,98210.69
2023-03-11T14:32:35.446Z,98213.78
2023-03-11T14:35:18.723Z,98221.78
2023-03-11T14:37:46.134Z,98231.81
2023-03-11T14:40:43.178Z,98245.09
2023-03-11T14:43:11.757Z,98234.06
2023-03-11T14:45:40.203Z,98232.69
2023-03-11T14:48:27.684Z,98246.75
2023-03-11T14:50:58.351Z,98246.31
2023-03-11T14:53:30.168Z,98211.97
2023-03-11T14:55:59.477Z,98226.56
2023-03-11T14:58:31.969Z,98247.50
2023-03-11T15:01:05.923Z,98249.44
2023-03-11T15:03:39.773Z,98234.59
2023-03-11T15:06:10.177Z,98246.91
2023-03-11T15:08:44.079Z,98264.78
2023-03-11T15:11:15.100Z,98264.31
2023-03-11T15:13:44.409Z,98273.09
2023-03-11T15:16:41.298Z,98262.09
2023-03-11T15:19:31.400Z,98299.97
2023-03-11T15:22:06.422Z,98287.34
2023-03-11T15:24:34.542Z,98279.72
2023-03-11T15:27:39.383Z,98286.63
2023-03-11T15:30:20.906Z,98299.56
2023-03-11T15:32:49.066Z,98307.84
2023-03-11T15:35:21.825Z,98311.50
2023-03-11T15:38:09.252Z,98315.13
2023-03-11T15:40:45.404Z,98312.56
2023-03-11T15:43:16.323Z,98313.78
2023-03-11T15:45:44.107Z,98325.59
2023-03-11T15:48:12.668Z,98326.72
2023-03-11T15:50:53.349Z,98326.00
2023-03-11T15:53:24.179Z,98338.00
2023-03-11T15:55:52.749Z,98334.66
2023-03-11T15:58:20.988Z,98354.13
2023-03-11T16:00:56.557Z,98347.87
2023-03-11T16:03:25.425Z,98327.34
2023-03-11T16:05:52.875Z,98362.53
2023-03-11T16:08:20.265Z,98364.00
2023-03-11T16:10:48.031Z,98375.56
2023-03-11T16:13:16.117Z,98369.19
2023-03-11T16:15:43.872Z,98378.19
2023-03-11T16:18:11.988Z,98368.03
2023-03-11T16:20:50.048Z,98377.22
2023-03-11T16:23:21.257Z,98390.16
2023-03-11T16:25:49.026Z,98396.94
2023-03-11T16:28:17.070Z,98407.19
2023-03-11T16:30:45.039Z,98411.53
2023-03-11T16:33:12.473Z,98411.19
2023-03-11T16:35:43.360Z,98412.25
2023-03-11T16:38:11.065Z,98414.19
2023-03-11T16:40:38.571Z,98414.56
2023-03-11T16:43:11.273Z,98400.44
2023-03-11T16:45:39.168Z,98408.16
2023-03-11T16:48:07.252Z,98411.44
2023-03-11T16:50:37.549Z,98422.66
2023-03-11T16:53:05.598Z,98420.63
2023-03-11T16:55:33.114Z,98429.03
2023-03-11T16:58:00.522Z,98434.88
2023-03-11T17:00:28.232Z,98452.19
2023-03-11T17:02:55.682Z,98458.56
2023-03-11T17:05:23.366Z,98461.69
2023-03-11T17:08:00.979Z,98470.28
2023-03-11T17:10:28.702Z,98479.69
2023-03-11T17:12:56.594Z,98488.06
2023-03-11T17:15:23.964Z,98484.84
2023-03-11T17:17:51.627Z,98496.00
2023-03-11T17:20:21.629Z,98498.78
2023-03-11T17:22:49.372Z,98507.03
2023-03-11T17:25:16.976Z,98499.37
2023-03-11T17:27:44.836Z,98508.69
2023-03-11T17:30:14.876Z,98519.81
2023-03-11T17:32:43.641Z,98525.94
2023-03-11T17:35:11.376Z,98525.72
2023-03-11T17:37:38.839Z,98528.88
2023-03-11T17:40:07.092Z,98544.94
2023-03-11T17:42:34.823Z,98560.28
2023-03-11T17:45:02.210Z,98568.16
2023-03-11T17:47:29.886Z,98562.16
2023-03-11T17:49:57.707Z,98569.38
2023-03-11T17:52:25.240Z,98568.59
2023-03-11T17:54:53.552Z,98563.81
2023-03-11T17:57:21.393Z,98568.16
2023-03-11T17:59:52.750Z,98569.16
2023-03-11T18:02:21.104Z,98579.69
2023-03-11T18:04:53.809Z,98575.53
2023-03-11T18:07:23.544Z,98575.78
2023-03-11T18:09:54.864Z,98580.16
2023-03-11T18:12:22.252Z,98583.47
2023-03-11T18:14:49.676Z,98598.81
2023-03-11T18:17:18.647Z,98602.34
2023-03-11T18:19:46.288Z,98594.41
2023-03-11T18:22:15.511Z,98613.63
2023-03-11T18:24:43.300Z,98604.94
2023-03-11T18:27:10.872Z,98612.63
2023-03-11T18:29:38.441Z,98622.88
2023-03-11T18:32:06.405Z,98625.31
2023-03-11T18:34:34.148Z,98630.75
2023-03-11T18:37:01.674Z,98623.78
2023-03-11T18:39:29.435Z,98640.12
2023-03-11T18:41:56.774Z,98653.84
2023-03-11T18:44:24.461Z,98648.66
2023-03-11T18:46:52.116Z,98652.84
2023-03-11T18:49:19.680Z,98658.16
2023-03-11T18:51:47.093Z,98645.97
2023-03-11T18:54:14.898Z,98657.75
2023-03-11T18:56:42.405Z,98657.28
2023-03-11T18:59:12.122Z,98646.81
2023-03-11T19:01:40.219Z,98650.69
2023-03-11T19:04:07.790Z,98655.97
2023-03-11T19:06:35.264Z,98661.50
2023-03-11T19:09:03.983Z,98663.28
2023-03-11T19:11:31.399Z,98669.63
2023-03-11T19:14:00.016Z,98665.91
2023-03-11T19:16:27.824Z,98679.53
2023-03-11T19:18:55.600Z,98685.47
2023-03-11T19:21:23.325Z,98693.91
2023-03-11T19:23:52.873Z,98697.56
2023-03-11T19:26:23.928Z,98699.19
2023-03-11T19:28:55.799Z,98707.03
2023-03-11T19:31:23.258Z,98703.44
2023-03-11T19:33:51.258Z,98699.81
2023-03-11T19:36:19.020Z,98696.59
2023-03-11T19:38:46.843Z,98702.66
2023-03-11T19:41:20.289Z,98714.50
2023-03-11T19:43:48.300Z,98704.38
2023-03-11T19:46:20.635Z,98704.81
2023-03-11T19:48:49.510Z,98718.50
2023-03-11T19:51:17.539Z,98714.94
2023-03-11T19:53:46.073Z,98720.06
2023-03-11T19:56:15.380Z,98727.22
2023-03-11T19:58:42.956Z,98712.28
2023-03-11T20:01:17.698Z,98695.84
2023-03-11T20:03:45.490Z,98688.22
2023-03-11T20:06:16.359Z,98684.38
2023-03-11T20:08:44.529Z,98673.69
2023-03-11T20:11:12.597Z,98676.44
2023-03-11T20:13:42.676Z,98688.63
2023-03-11T20:16:18.643Z,98701.25
2023-03-11T20:18:50.447Z,98697.84
2023-03-11T20:21:17.966Z,98707.00
2023-03-11T20:23:45.415Z,98706.75
2023-03-11T20:26:15.551Z,98712.09
2023-03-11T20:28:43.672Z,98713.69
2023-03-11T20:31:12.274Z,98714.59
2023-03-11T20:33:40.275Z,98722.50
2023-03-11T20:36:10.616Z,98719.72
2023-03-11T20:38:38.135Z,98717.41
2023-03-11T20:41:08.120Z,98712.84
2023-03-11T20:43:37.134Z,98723.16
2023-03-11T20:46:06.148Z,98724.94
2023-03-11T20:48:34.788Z,98719.09
2023-03-11T20:51:04.439Z,98734.69
2023-03-11T20:53:32.149Z,98735.69
2023-03-11T20:56:05.361Z,98741.00
2023-03-11T20:58:33.016Z,98733.84
2023-03-11T21:01:00.979Z,98738.19
2023-03-11T21:03:28.758Z,98748.38
2023-03-11T21:05:56.596Z,98744.44
2023-03-11T21:08:24.256Z,98751.25
2023-03-11T21:10:51.717Z,98744.44
2023-03-11T21:13:19.304Z,98759.06
2023-03-11T21:15:47.025Z,98757.38
2023-03-11T21:18:14.453Z,98763.56
2023-03-11T21:20:42.094Z,98766.06
2023-03-11T21:23:09.861Z,98781.81
2023-03-11T21:25:42.644Z,98778.53
2023-03-11T21:28:10.448Z,98778.22
2023-03-11T21:30:37.916Z,98783.81
2023-03-11T21:33:05.596Z,98786.88
2023-03-11T21:35:33.745Z,98784.56
2023-03-11T21:38:01.211Z,98798.69
2023-03-11T21:40:28.652Z,98792.53
2023-03-11T21:42:56.303Z,98793.56
2023-03-11T21:45:23.831Z,98805.47
2023-03-11T21:47:51.324Z,98808.91
2023-03-11T21:50:19.113Z,98806.81
2023-03-11T21:52:46.693Z,98806.09
2023-03-11T21:55:14.137Z,98815.12
2023-03-11T21:57:41.779Z,98822.81
2023-03-11T22:00:10.248Z,98821.91
2023-03-11T22:02:38.110Z,98818.41
2023-03-11T22:05:06.124Z,98817.63
2023-03-11T22:07:33.493Z,98812.87
2023-03-11T22:10:01.155Z,98814.91
2023-03-11T22:12:28.753Z,98812.94
2023-03-11T22:14:56.176Z,98812.97
2023-03-11T22:17:24.729Z,98820.84
2023-03-11T22:19:52.166Z,98821.63
2023-03-11T22:22:19.880Z,98836.81
2023-03-11T22:24:47.706Z,98831.75
2023-03-11T22:27:15.093Z,98828.00
2023-03-11T22:29:44.336Z,98834.66
2023-03-11T22:32:11.974Z,98836.19
2023-03-11T22:34:39.330Z,98842.66
2023-03-11T22:37:06.794Z,98841.13
2023-03-11T22:39:34.579Z,98859.25
2023-03-11T22:42:02.282Z,98871.31
2023-03-11T22:44:29.643Z,98864.78
2023-03-11T22:46:57.332Z,98864.34
2023-03-11T22:49:24.701Z,98875.06
2023-03-11T22:51:52.089Z,98860.59
2023-03-11T22:54:19.809Z,98882.00
2023-03-11T22:56:47.306Z,98890.53
2023-03-11T22:59:14.690Z,98901.06
2023-03-11T23:01:42.499Z,98900.03
2023-03-11T23:04:10.541Z,98909.81
2023-03-11T23:06:37.980Z,98909.44
2023-03-11T23:09:05.636Z,98915.12
2023-03-11T23:11:33.048Z,98922.38
2023-03-11T23:14:00.441Z,98921.84
2023-03-11T23:16:28.152Z,98923.06
2023-03-11T23:18:56.142Z,98928.53
2023-03-11T23:21:31.641Z,98927.81
2023-03-11T23:24:00.901Z,98931.16
2023-03-11T23:26:29.443Z,98916.66
2023-03-11T23:28:58.360Z,98917.78
2023-03-11T23:31:26.461Z,98914.72
2023-03-11T23:33:54.274Z,98921.72
2023-03-11T23:36:23.080Z,98916.06
2023-03-11T23:38:50.998Z,98924.44
2023-03-11T23:41:20.959Z,98932.69
2023-03-11T23:43:48.378Z,98928.56
2023-03-11T23:46:16.208Z,98942.94
2023-03-11T23:48:43.683Z,98942.44
2023-03-11T23:51:11.212Z,98941.56
2023-03-11T23:53:39.173Z,98941.34
2023-03-11T23:56:18.398Z,98934.78
2023-03-11T23:58:46.506Z,98944.41
